sensor_id;sensor_type;location;lat;lon;timestamp;temperature;humidity
35531;DHT22;21637;53.352;-6.356;2022-08-01T00:00:11;14.80;99.90
35531;DHT22;21637;53.352;-6.356;2022-08-01T00:02:37;14.70;99.90
35531;DHT22;21637;53.352;-6.356;2022-08-01T00:05:03;14.70;99.90
35531;DHT22;21637;53.352;-6.356;2022-08-01T00:07:31;14.70;99.90
35531;DHT22;21637;53.352;-6.356;2022-08-01T00:09:57;14.60;99.90
35531;DHT22;21637;53.352;-6.356;2022-08-01T00:12:22;14.60;99.90
35531;DHT22;21637;53.352;-6.356;2022-08-01T00:14:48;14.50;99.90
35531;DHT22;21637;53.352;-6.356;2022-08-01T00:17:13;14.50;99.90
35531;DHT22;21637;53.352;-6.356;2022-08-01T00:19:39;14.50;99.90
35531;DHT22;21637;53.352;-6.356;2022-08-01T00:22:04;14.50;99.90
35531;DHT22;21637;53.352;-6.356;2022-08-01T00:24:30;14.50;99.90
35531;DHT22;21637;53.352;-6.356;2022-08-01T00:26:56;14.50;99.90
35531;DHT22;21637;53.352;-6.356;2022-08-01T00:29:21;14.50;99.90
35531;DHT22;21637;53.352;-6.356;2022-08-01T00:31:47;14.50;99.90
35531;DHT22;21637;53.352;-6.356;2022-08-01T00:34:13;14.50;99.90
35531;DHT22;21637;53.352;-6.356;2022-08-01T00:36:38;14.50;99.90
35531;DHT22;21637;53.352;-6.356;2022-08-01T00:39:04;14.40;99.90
35531;DHT22;21637;53.352;-6.356;2022-08-01T00:41:29;14.40;99.90
35531;DHT22;21637;53.352;-6.356;2022-08-01T00:43:55;14.40;99.90
35531;DHT22;21637;53.352;-6.356;2022-08-01T00:46:21;14.40;99.90
35531;DHT22;21637;53.352;-6.356;2022-08-01T00:48:46;14.40;99.90
35531;DHT22;21637;53.352;-6.356;2022-08-01T00:51:12;14.40;99.90
35531;DHT22;21637;53.352;-6.356;2022-08-01T00:53:38;14.30;99.90
35531;DHT22;21637;53.352;-6.356;2022-08-01T00:56:04;14.30;99.90
35531;DHT22;21637;53.352;-6.356;2022-08-01T00:58:30;14.20;99.90
35531;DHT22;21637;53.352;-6.356;2022-08-01T01:00:57;14.20;99.90
35531;DHT22;21637;53.352;-6.356;2022-08-01T01:03:23;14.20;99.90
35531;DHT22;21637;53.352;-6.356;2022-08-01T01:05:56;14.20;99.90
35531;DHT22;21637;53.352;-6.356;2022-08-01T01:08:24;14.10;99.90
35531;DHT22;21637;53.352;-6.356;2022-08-01T01:10:54;14.10;99.90
35531;DHT22;21637;53.352;-6.356;2022-08-01T01:15:56;14.00;99.90
35531;DHT22;21637;53.352;-6.356;2022-08-01T01:18:24;14.00;99.90
35531;DHT22;21637;53.352;-6.356;2022-08-01T01:26:17;13.80;99.90
35531;DHT22;21637;53.352;-6.356;2022-08-01T01:31:30;13.80;99.90
35531;DHT22;21637;53.352;-6.356;2022-08-01T01:33:56;13.70;99.90
35531;DHT22;21637;53.352;-6.356;2022-08-01T01:36:23;13.70;99.90
35531;DHT22;21637;53.352;-6.356;2022-08-01T01:38:50;13.60;99.90
35531;DHT22;21637;53.352;-6.356;2022-08-01T01:41:16;13.60;99.90
35531;DHT22;21637;53.352;-6.356;2022-08-01T01:43:42;13.50;99.90
35531;DHT22;21637;53.352;-6.356;2022-08-01T01:46:09;13.50;99.90
35531;DHT22;21637;53.352;-6.356;2022-08-01T01:48:36;13.50;99.90
35531;DHT22;21637;53.352;-6.356;2022-08-01T01:51:03;13.60;99.90
35531;DHT22;21637;53.352;-6.356;2022-08-01T01:53:28;13.60;99.90
35531;DHT22;21637;53.352;-6.356;2022-08-01T01:55:56;13.60;99.90
35531;DHT22;21637;53.352;-6.356;2022-08-01T01:58:23;13.50;99.90
35531;DHT22;21637;53.352;-6.356;2022-08-01T02:00:49;13.50;99.90
35531;DHT22;21637;53.352;-6.356;2022-08-01T02:03:16;13.50;99.90
35531;DHT22;21637;53.352;-6.356;2022-08-01T02:05:42;13.50;99.90
35531;DHT22;21637;53.352;-6.356;2022-08-01T02:08:09;13.60;99.90
35531;DHT22;21637;53.352;-6.356;2022-08-01T02:10:36;13.60;99.90
35531;DHT22;21637;53.352;-6.356;2022-08-01T02:13:03;13.60;99.90
35531;DHT22;21637;53.352;-6.356;2022-08-01T02:15:29;13.60;99.90
35531;DHT22;21637;53.352;-6.356;2022-08-01T02:17:55;13.50;99.90
35531;DHT22;21637;53.352;-6.356;2022-08-01T02:20:21;13.60;99.90
35531;DHT22;21637;53.352;-6.356;2022-08-01T02:22:49;13.60;99.90
35531;DHT22;21637;53.352;-6.356;2022-08-01T02:25:27;13.60;99.90
35531;DHT22;21637;53.352;-6.356;2022-08-01T02:30:22;13.60;99.90
35531;DHT22;21637;53.352;-6.356;2022-08-01T02:32:51;13.50;99.90
35531;DHT22;21637;53.352;-6.356;2022-08-01T02:35:23;13.50;99.90
35531;DHT22;21637;53.352;-6.356;2022-08-01T02:37:50;13.50;99.90
35531;DHT22;21637;53.352;-6.356;2022-08-01T02:40:16;13.50;99.90
35531;DHT22;21637;53.352;-6.356;2022-08-01T02:42:43;13.50;99.90
35531;DHT22;21637;53.352;-6.356;2022-08-01T02:45:09;13.50;99.90
35531;DHT22;21637;53.352;-6.356;2022-08-01T02:47:36;13.50;99.90
35531;DHT22;21637;53.352;-6.356;2022-08-01T02:50:02;13.50;99.90
35531;DHT22;21637;53.352;-6.356;2022-08-01T02:52:28;13.50;99.90
35531;DHT22;21637;53.352;-6.356;2022-08-01T02:54:55;13.40;99.90
35531;DHT22;21637;53.352;-6.356;2022-08-01T02:57:22;13.30;99.90
35531;DHT22;21637;53.352;-6.356;2022-08-01T02:59:48;13.30;99.90
35531;DHT22;21637;53.352;-6.356;2022-08-01T03:02:14;13.20;99.90
35531;DHT22;21637;53.352;-6.356;2022-08-01T03:04:41;13.20;99.90
35531;DHT22;21637;53.352;-6.356;2022-08-01T03:07:08;13.20;99.90
35531;DHT22;21637;53.352;-6.356;2022-08-01T03:09:38;13.20;99.90
35531;DHT22;21637;53.352;-6.356;2022-08-01T03:12:06;13.30;99.90
35531;DHT22;21637;53.352;-6.356;2022-08-01T03:14:34;13.20;99.90
35531;DHT22;21637;53.352;-6.356;2022-08-01T03:17:00;13.20;99.90
35531;DHT22;21637;53.352;-6.356;2022-08-01T03:19:26;13.20;99.90
35531;DHT22;21637;53.352;-6.356;2022-08-01T03:21:53;13.10;99.90
35531;DHT22;21637;53.352;-6.356;2022-08-01T03:24:19;13.10;99.90
35531;DHT22;21637;53.352;-6.356;2022-08-01T03:26:46;13.10;99.90
35531;DHT22;21637;53.352;-6.356;2022-08-01T03:29:14;13.10;99.90
35531;DHT22;21637;53.352;-6.356;2022-08-01T03:31:40;13.10;99.90
35531;DHT22;21637;53.352;-6.356;2022-08-01T03:34:08;13.10;99.90
35531;DHT22;21637;53.352;-6.356;2022-08-01T03:36:34;13.10;99.90
35531;DHT22;21637;53.352;-6.356;2022-08-01T03:39:03;13.10;99.90
35531;DHT22;21637;53.352;-6.356;2022-08-01T03:41:32;13.00;99.90
35531;DHT22;21637;53.352;-6.356;2022-08-01T03:44:03;13.00;99.90
35531;DHT22;21637;53.352;-6.356;2022-08-01T03:46:54;12.90;99.90
35531;DHT22;21637;53.352;-6.356;2022-08-01T03:52:08;12.80;99.90
35531;DHT22;21637;53.352;-6.356;2022-08-01T03:54:35;12.70;99.90
35531;DHT22;21637;53.352;-6.356;2022-08-01T03:57:02;12.70;99.90
35531;DHT22;21637;53.352;-6.356;2022-08-01T03:59:29;12.60;99.90
35531;DHT22;21637;53.352;-6.356;2022-08-01T04:01:54;12.60;99.90
35531;DHT22;21637;53.352;-6.356;2022-08-01T04:04:20;12.50;99.90
35531;DHT22;21637;53.352;-6.356;2022-08-01T04:06:46;12.60;99.90
35531;DHT22;21637;53.352;-6.356;2022-08-01T04:09:15;12.60;99.90
35531;DHT22;21637;53.352;-6.356;2022-08-01T04:11:41;12.60;99.90
35531;DHT22;21637;53.352;-6.356;2022-08-01T04:14:07;12.60;99.90
35531;DHT22;21637;53.352;-6.356;2022-08-01T04:16:32;12.60;99.90
35531;DHT22;21637;53.352;-6.356;2022-08-01T04:18:58;12.60;99.90
35531;DHT22;21637;53.352;-6.356;2022-08-01T04:21:25;12.60;99.90
35531;DHT22;21637;53.352;-6.356;2022-08-01T04:23:54;12.50;99.90
35531;DHT22;21637;53.352;-6.356;2022-08-01T04:26:21;12.40;99.90
35531;DHT22;21637;53.352;-6.356;2022-08-01T04:28:47;12.50;99.90
35531;DHT22;21637;53.352;-6.356;2022-08-01T04:31:15;12.50;99.90
35531;DHT22;21637;53.352;-6.356;2022-08-01T04:33:42;12.40;99.90
35531;DHT22;21637;53.352;-6.356;2022-08-01T04:36:09;12.40;99.90
35531;DHT22;21637;53.352;-6.356;2022-08-01T04:38:35;12.40;99.90
35531;DHT22;21637;53.352;-6.356;2022-08-01T04:41:02;12.40;99.90
35531;DHT22;21637;53.352;-6.356;2022-08-01T04:43:28;12.40;99.90
35531;DHT22;21637;53.352;-6.356;2022-08-01T04:45:54;12.40;99.90
35531;DHT22;21637;53.352;-6.356;2022-08-01T04:48:20;12.50;99.90
35531;DHT22;21637;53.352;-6.356;2022-08-01T04:50:46;12.50;99.90
35531;DHT22;21637;53.352;-6.356;2022-08-01T04:53:16;12.50;99.90
35531;DHT22;21637;53.352;-6.356;2022-08-01T04:55:47;12.50;99.90
35531;DHT22;21637;53.352;-6.356;2022-08-01T04:58:13;12.50;99.90
35531;DHT22;21637;53.352;-6.356;2022-08-01T05:00:39;12.50;99.90
35531;DHT22;21637;53.352;-6.356;2022-08-01T05:03:04;12.50;99.90
35531;DHT22;21637;53.352;-6.356;2022-08-01T05:05:30;12.50;99.90
35531;DHT22;21637;53.352;-6.356;2022-08-01T05:07:57;12.50;99.90
35531;DHT22;21637;53.352;-6.356;2022-08-01T05:10:22;12.40;99.90
35531;DHT22;21637;53.352;-6.356;2022-08-01T05:12:48;12.30;99.90
35531;DHT22;21637;53.352;-6.356;2022-08-01T05:15:13;12.30;99.90
35531;DHT22;21637;53.352;-6.356;2022-08-01T05:17:39;12.20;99.90
35531;DHT22;21637;53.352;-6.356;2022-08-01T05:20:04;12.10;99.90
35531;DHT22;21637;53.352;-6.356;2022-08-01T05:22:31;12.10;99.90
35531;DHT22;21637;53.352;-6.356;2022-08-01T05:24:57;12.10;99.90
35531;DHT22;21637;53.352;-6.356;2022-08-01T05:27:24;12.10;99.90
35531;DHT22;21637;53.352;-6.356;2022-08-01T05:29:50;12.20;99.90
35531;DHT22;21637;53.352;-6.356;2022-08-01T05:32:16;12.30;99.90
35531;DHT22;21637;53.352;-6.356;2022-08-01T05:34:41;12.30;99.90
35531;DHT22;21637;53.352;-6.356;2022-08-01T05:37:07;12.50;99.90
35531;DHT22;21637;53.352;-6.356;2022-08-01T05:39:33;12.60;99.90
35531;DHT22;21637;53.352;-6.356;2022-08-01T05:41:58;12.80;99.90
35531;DHT22;21637;53.352;-6.356;2022-08-01T05:44:24;13.00;99.90
35531;DHT22;21637;53.352;-6.356;2022-08-01T05:46:50;13.20;99.90
35531;DHT22;21637;53.352;-6.356;2022-08-01T05:49:16;13.30;99.90
35531;DHT22;21637;53.352;-6.356;2022-08-01T05:51:42;13.40;99.90
35531;DHT22;21637;53.352;-6.356;2022-08-01T05:54:07;13.50;99.90
35531;DHT22;21637;53.352;-6.356;2022-08-01T05:56:33;13.60;99.90
35531;DHT22;21637;53.352;-6.356;2022-08-01T05:58:59;13.70;99.90
35531;DHT22;21637;53.352;-6.356;2022-08-01T06:01:24;13.70;99.90
35531;DHT22;21637;53.352;-6.356;2022-08-01T06:03:50;13.90;99.90
35531;DHT22;21637;53.352;-6.356;2022-08-01T06:06:15;14.00;99.90
35531;DHT22;21637;53.352;-6.356;2022-08-01T06:08:41;14.00;99.90
35531;DHT22;21637;53.352;-6.356;2022-08-01T06:11:07;14.10;99.90
35531;DHT22;21637;53.352;-6.356;2022-08-01T06:13:33;14.20;99.90
35531;DHT22;21637;53.352;-6.356;2022-08-01T06:15:58;14.30;99.90
35531;DHT22;21637;53.352;-6.356;2022-08-01T06:18:24;14.40;99.90
35531;DHT22;21637;53.352;-6.356;2022-08-01T06:20:49;14.40;99.90
35531;DHT22;21637;53.352;-6.356;2022-08-01T06:23:15;14.40;99.90
35531;DHT22;21637;53.352;-6.356;2022-08-01T06:25:44;14.40;99.90
35531;DHT22;21637;53.352;-6.356;2022-08-01T06:28:09;14.40;99.90
35531;DHT22;21637;53.352;-6.356;2022-08-01T06:30:35;14.40;99.90
35531;DHT22;21637;53.352;-6.356;2022-08-01T06:33:01;14.30;99.90
35531;DHT22;21637;53.352;-6.356;2022-08-01T06:35:28;14.40;99.90
35531;DHT22;21637;53.352;-6.356;2022-08-01T06:37:55;14.60;99.90
35531;DHT22;21637;53.352;-6.356;2022-08-01T06:40:20;14.70;99.90
35531;DHT22;21637;53.352;-6.356;2022-08-01T06:42:46;14.70;99.90
35531;DHT22;21637;53.352;-6.356;2022-08-01T06:45:12;14.80;99.90
35531;DHT22;21637;53.352;-6.356;2022-08-01T06:47:39;14.90;99.90
35531;DHT22;21637;53.352;-6.356;2022-08-01T06:50:05;15.00;99.90
35531;DHT22;21637;53.352;-6.356;2022-08-01T06:52:31;14.80;99.90
35531;DHT22;21637;53.352;-6.356;2022-08-01T06:54:56;15.00;99.90
35531;DHT22;21637;53.352;-6.356;2022-08-01T06:57:22;15.10;99.90
35531;DHT22;21637;53.352;-6.356;2022-08-01T06:59:48;15.20;99.90
35531;DHT22;21637;53.352;-6.356;2022-08-01T07:02:13;15.40;99.90
35531;DHT22;21637;53.352;-6.356;2022-08-01T07:04:39;15.60;99.90
35531;DHT22;21637;53.352;-6.356;2022-08-01T07:07:04;15.80;99.90
35531;DHT22;21637;53.352;-6.356;2022-08-01T07:09:30;15.90;99.90
35531;DHT22;21637;53.352;-6.356;2022-08-01T07:11:55;16.10;99.90
35531;DHT22;21637;53.352;-6.356;2022-08-01T07:14:22;16.30;99.90
35531;DHT22;21637;53.352;-6.356;2022-08-01T07:16:47;16.40;99.90
35531;DHT22;21637;53.352;-6.356;2022-08-01T07:19:13;16.50;99.90
35531;DHT22;21637;53.352;-6.356;2022-08-01T07:21:39;16.50;99.90
35531;DHT22;21637;53.352;-6.356;2022-08-01T07:24:05;16.50;99.90
35531;DHT22;21637;53.352;-6.356;2022-08-01T07:26:31;16.60;99.90
35531;DHT22;21637;53.352;-6.356;2022-08-01T07:28:56;16.60;99.90
35531;DHT22;21637;53.352;-6.356;2022-08-01T07:31:22;16.70;99.90
35531;DHT22;21637;53.352;-6.356;2022-08-01T07:33:48;16.70;99.90
35531;DHT22;21637;53.352;-6.356;2022-08-01T07:36:14;16.70;99.90
35531;DHT22;21637;53.352;-6.356;2022-08-01T07:38:39;16.80;99.90
35531;DHT22;21637;53.352;-6.356;2022-08-01T07:41:05;17.00;99.90
35531;DHT22;21637;53.352;-6.356;2022-08-01T07:43:31;17.10;99.90
35531;DHT22;21637;53.352;-6.356;2022-08-01T07:45:56;17.20;99.90
35531;DHT22;21637;53.352;-6.356;2022-08-01T07:48:22;17.40;99.90
35531;DHT22;21637;53.352;-6.356;2022-08-01T07:50:49;17.40;99.90
35531;DHT22;21637;53.352;-6.356;2022-08-01T07:53:15;17.60;99.90
35531;DHT22;21637;53.352;-6.356;2022-08-01T07:55:41;17.70;99.90
35531;DHT22;21637;53.352;-6.356;2022-08-01T07:58:06;17.80;99.90
35531;DHT22;21637;53.352;-6.356;2022-08-01T08:00:32;17.90;99.90
35531;DHT22;21637;53.352;-6.356;2022-08-01T08:02:57;17.90;99.90
35531;DHT22;21637;53.352;-6.356;2022-08-01T08:05:27;17.90;99.90
35531;DHT22;21637;53.352;-6.356;2022-08-01T08:07:52;18.00;99.90
35531;DHT22;21637;53.352;-6.356;2022-08-01T08:10:18;18.00;99.90
35531;DHT22;21637;53.352;-6.356;2022-08-01T08:12:43;18.20;99.90
35531;DHT22;21637;53.352;-6.356;2022-08-01T08:15:11;18.30;99.90
35531;DHT22;21637;53.352;-6.356;2022-08-01T08:17:37;18.40;99.90
35531;DHT22;21637;53.352;-6.356;2022-08-01T08:20:03;18.60;99.90
35531;DHT22;21637;53.352;-6.356;2022-08-01T08:22:29;18.60;99.90
35531;DHT22;21637;53.352;-6.356;2022-08-01T08:24:54;18.60;99.90
35531;DHT22;21637;53.352;-6.356;2022-08-01T08:27:20;18.70;99.90
35531;DHT22;21637;53.352;-6.356;2022-08-01T08:29:46;18.70;99.90
35531;DHT22;21637;53.352;-6.356;2022-08-01T08:32:11;18.80;99.90
35531;DHT22;21637;53.352;-6.356;2022-08-01T08:34:37;18.80;99.90
35531;DHT22;21637;53.352;-6.356;2022-08-01T08:37:03;18.80;99.90
35531;DHT22;21637;53.352;-6.356;2022-08-01T08:39:28;18.90;99.90
35531;DHT22;21637;53.352;-6.356;2022-08-01T08:41:56;19.00;99.90
35531;DHT22;21637;53.352;-6.356;2022-08-01T08:44:22;19.10;99.90
35531;DHT22;21637;53.352;-6.356;2022-08-01T08:46:48;19.10;99.90
35531;DHT22;21637;53.352;-6.356;2022-08-01T08:49:16;19.20;99.90
35531;DHT22;21637;53.352;-6.356;2022-08-01T08:51:42;19.20;99.90
35531;DHT22;21637;53.352;-6.356;2022-08-01T08:54:10;19.30;99.90
35531;DHT22;21637;53.352;-6.356;2022-08-01T08:56:36;19.30;99.90
35531;DHT22;21637;53.352;-6.356;2022-08-01T08:59:03;19.40;99.90
35531;DHT22;21637;53.352;-6.356;2022-08-01T09:01:28;19.50;99.90
35531;DHT22;21637;53.352;-6.356;2022-08-01T09:03:57;19.70;99.90
35531;DHT22;21637;53.352;-6.356;2022-08-01T09:06:23;19.80;99.90
35531;DHT22;21637;53.352;-6.356;2022-08-01T09:08:49;19.90;99.90
35531;DHT22;21637;53.352;-6.356;2022-08-01T09:11:14;20.10;99.90
35531;DHT22;21637;53.352;-6.356;2022-08-01T09:13:40;20.00;99.90
35531;DHT22;21637;53.352;-6.356;2022-08-01T09:16:06;20.00;99.90
35531;DHT22;21637;53.352;-6.356;2022-08-01T09:23:32;20.30;99.90
35531;DHT22;21637;53.352;-6.356;2022-08-01T09:25:58;20.40;99.90
35531;DHT22;21637;53.352;-6.356;2022-08-01T09:28:28;20.50;99.90
35531;DHT22;21637;53.352;-6.356;2022-08-01T09:30:55;20.50;99.90
35531;DHT22;21637;53.352;-6.356;2022-08-01T09:33:20;20.50;99.90
35531;DHT22;21637;53.352;-6.356;2022-08-01T09:35:46;20.50;99.90
35531;DHT22;21637;53.352;-6.356;2022-08-01T09:38:19;20.70;99.90
35531;DHT22;21637;53.352;-6.356;2022-08-01T09:43:14;20.90;99.90
35531;DHT22;21637;53.352;-6.356;2022-08-01T09:45:39;20.90;99.90
35531;DHT22;21637;53.352;-6.356;2022-08-01T09:48:06;20.70;99.90
35531;DHT22;21637;53.352;-6.356;2022-08-01T09:50:38;20.80;99.90
35531;DHT22;21637;53.352;-6.356;2022-08-01T09:53:04;20.90;99.90
35531;DHT22;21637;53.352;-6.356;2022-08-01T09:55:30;21.00;99.90
35531;DHT22;21637;53.352;-6.356;2022-08-01T09:57:56;21.00;99.90
35531;DHT22;21637;53.352;-6.356;2022-08-01T10:00:23;21.10;99.90
35531;DHT22;21637;53.352;-6.356;2022-08-01T10:02:48;21.20;99.90
35531;DHT22;21637;53.352;-6.356;2022-08-01T10:05:14;21.30;99.90
35531;DHT22;21637;53.352;-6.356;2022-08-01T10:08:00;21.30;99.90
35531;DHT22;21637;53.352;-6.356;2022-08-01T10:10:27;21.40;99.90
35531;DHT22;21637;53.352;-6.356;2022-08-01T10:12:52;21.50;99.90
35531;DHT22;21637;53.352;-6.356;2022-08-01T10:15:20;21.50;99.90
35531;DHT22;21637;53.352;-6.356;2022-08-01T10:17:47;21.60;99.90
35531;DHT22;21637;53.352;-6.356;2022-08-01T10:20:18;21.60;99.90
35531;DHT22;21637;53.352;-6.356;2022-08-01T10:22:44;21.70;99.90
35531;DHT22;21637;53.352;-6.356;2022-08-01T10:25:10;21.80;99.90
35531;DHT22;21637;53.352;-6.356;2022-08-01T10:27:37;21.80;99.90
35531;DHT22;21637;53.352;-6.356;2022-08-01T10:30:03;21.90;99.90
35531;DHT22;21637;53.352;-6.356;2022-08-01T10:32:30;21.90;99.90
35531;DHT22;21637;53.352;-6.356;2022-08-01T10:34:56;21.90;99.90
35531;DHT22;21637;53.352;-6.356;2022-08-01T10:37:23;22.00;99.90
35531;DHT22;21637;53.352;-6.356;2022-08-01T10:39:50;22.10;99.90
35531;DHT22;21637;53.352;-6.356;2022-08-01T10:42:16;22.10;99.90
35531;DHT22;21637;53.352;-6.356;2022-08-01T10:44:42;22.20;99.90
35531;DHT22;21637;53.352;-6.356;2022-08-01T10:47:12;22.30;99.90
35531;DHT22;21637;53.352;-6.356;2022-08-01T10:52:26;22.20;99.90
35531;DHT22;21637;53.352;-6.356;2022-08-01T10:55:04;22.30;99.90
35531;DHT22;21637;53.352;-6.356;2022-08-01T10:57:43;22.30;99.90
35531;DHT22;21637;53.352;-6.356;2022-08-01T11:00:10;22.40;99.90
35531;DHT22;21637;53.352;-6.356;2022-08-01T11:02:41;22.40;99.90
35531;DHT22;21637;53.352;-6.356;2022-08-01T11:05:21;22.50;99.90
35531;DHT22;21637;53.352;-6.356;2022-08-01T11:07:51;22.50;99.90
35531;DHT22;21637;53.352;-6.356;2022-08-01T11:13:01;22.40;99.90
35531;DHT22;21637;53.352;-6.356;2022-08-01T11:15:28;22.40;99.90
35531;DHT22;21637;53.352;-6.356;2022-08-01T11:17:54;22.40;99.90
35531;DHT22;21637;53.352;-6.356;2022-08-01T11:20:21;22.40;99.90
35531;DHT22;21637;53.352;-6.356;2022-08-01T11:30:45;22.50;99.90
35531;DHT22;21637;53.352;-6.356;2022-08-01T11:33:11;22.50;99.90
35531;DHT22;21637;53.352;-6.356;2022-08-01T11:35:37;22.40;99.90
35531;DHT22;21637;53.352;-6.356;2022-08-01T11:38:23;22.40;99.90
35531;DHT22;21637;53.352;-6.356;2022-08-01T11:41:09;22.30;99.90
35531;DHT22;21637;53.352;-6.356;2022-08-01T11:43:34;22.20;99.90
35531;DHT22;21637;53.352;-6.356;2022-08-01T11:46:00;22.10;99.90
35531;DHT22;21637;53.352;-6.356;2022-08-01T11:48:27;22.20;99.90
35531;DHT22;21637;53.352;-6.356;2022-08-01T11:50:54;22.20;99.90
35531;DHT22;21637;53.352;-6.356;2022-08-01T11:53:20;22.20;99.90
35531;DHT22;21637;53.352;-6.356;2022-08-01T11:55:46;22.20;99.90
35531;DHT22;21637;53.352;-6.356;2022-08-01T11:58:14;22.20;99.90
35531;DHT22;21637;53.352;-6.356;2022-08-01T12:00:39;22.20;99.90
35531;DHT22;21637;53.352;-6.356;2022-08-01T12:03:06;22.10;99.90
35531;DHT22;21637;53.352;-6.356;2022-08-01T12:05:33;22.00;99.90
35531;DHT22;21637;53.352;-6.356;2022-08-01T12:07:59;21.90;99.90
35531;DHT22;21637;53.352;-6.356;2022-08-01T12:10:28;21.90;99.90
35531;DHT22;21637;53.352;-6.356;2022-08-01T12:13:00;21.90;99.90
35531;DHT22;21637;53.352;-6.356;2022-08-01T12:15:31;21.90;99.90
35531;DHT22;21637;53.352;-6.356;2022-08-01T12:18:00;21.80;99.90
35531;DHT22;21637;53.352;-6.356;2022-08-01T12:20:30;21.90;99.90
35531;DHT22;21637;53.352;-6.356;2022-08-01T12:22:56;22.00;99.90
35531;DHT22;21637;53.352;-6.356;2022-08-01T12:25:22;22.10;99.90
35531;DHT22;21637;53.352;-6.356;2022-08-01T12:27:48;22.00;99.90
35531;DHT22;21637;53.352;-6.356;2022-08-01T12:30:15;22.00;99.90
35531;DHT22;21637;53.352;-6.356;2022-08-01T12:32:42;21.90;99.90
35531;DHT22;21637;53.352;-6.356;2022-08-01T12:35:12;21.90;99.90
35531;DHT22;21637;53.352;-6.356;2022-08-01T12:37:48;21.90;99.90
35531;DHT22;21637;53.352;-6.356;2022-08-01T12:40:15;21.90;99.90
35531;DHT22;21637;53.352;-6.356;2022-08-01T12:42:42;21.80;99.90
35531;DHT22;21637;53.352;-6.356;2022-08-01T12:45:09;21.80;99.90
35531;DHT22;21637;53.352;-6.356;2022-08-01T12:47:36;21.90;99.90
35531;DHT22;21637;53.352;-6.356;2022-08-01T12:50:03;21.90;99.90
35531;DHT22;21637;53.352;-6.356;2022-08-01T12:52:29;22.00;99.90
35531;DHT22;21637;53.352;-6.356;2022-08-01T12:55:03;22.00;99.90
35531;DHT22;21637;53.352;-6.356;2022-08-01T12:57:30;22.10;99.90
35531;DHT22;21637;53.352;-6.356;2022-08-01T13:00:09;22.10;99.90
35531;DHT22;21637;53.352;-6.356;2022-08-01T13:02:35;22.20;99.90
35531;DHT22;21637;53.352;-6.356;2022-08-01T13:05:01;22.20;99.90
35531;DHT22;21637;53.352;-6.356;2022-08-01T13:07:37;22.20;99.90
35531;DHT22;21637;53.352;-6.356;2022-08-01T13:10:03;22.20;99.90
35531;DHT22;21637;53.352;-6.356;2022-08-01T13:12:29;22.30;99.90
35531;DHT22;21637;53.352;-6.356;2022-08-01T13:14:54;22.30;99.90
35531;DHT22;21637;53.352;-6.356;2022-08-01T13:17:30;22.30;99.90
35531;DHT22;21637;53.352;-6.356;2022-08-01T13:19:55;22.30;99.90
35531;DHT22;21637;53.352;-6.356;2022-08-01T13:22:30;22.20;99.90
35531;DHT22;21637;53.352;-6.356;2022-08-01T13:25:08;22.20;99.90
35531;DHT22;21637;53.352;-6.356;2022-08-01T13:27:34;22.10;99.90
35531;DHT22;21637;53.352;-6.356;2022-08-01T13:30:09;21.90;99.90
35531;DHT22;21637;53.352;-6.356;2022-08-01T13:32:35;21.90;99.90
35531;DHT22;21637;53.352;-6.356;2022-08-01T13:35:04;21.80;99.90
35531;DHT22;21637;53.352;-6.356;2022-08-01T13:37:30;21.70;99.90
35531;DHT22;21637;53.352;-6.356;2022-08-01T13:39:55;21.70;99.90
35531;DHT22;21637;53.352;-6.356;2022-08-01T13:42:21;21.70;99.90
35531;DHT22;21637;53.352;-6.356;2022-08-01T13:44:47;21.60;99.90
35531;DHT22;21637;53.352;-6.356;2022-08-01T13:47:12;21.60;99.90
35531;DHT22;21637;53.352;-6.356;2022-08-01T13:49:38;21.50;99.90
35531;DHT22;21637;53.352;-6.356;2022-08-01T13:52:03;21.50;99.90
35531;DHT22;21637;53.352;-6.356;2022-08-01T13:54:31;21.40;99.90
35531;DHT22;21637;53.352;-6.356;2022-08-01T13:56:57;21.40;99.90
35531;DHT22;21637;53.352;-6.356;2022-08-01T13:59:22;21.30;99.90
35531;DHT22;21637;53.352;-6.356;2022-08-01T14:01:48;21.20;99.90
35531;DHT22;21637;53.352;-6.356;2022-08-01T14:04:13;21.10;99.90
35531;DHT22;21637;53.352;-6.356;2022-08-01T14:06:39;21.10;99.90
35531;DHT22;21637;53.352;-6.356;2022-08-01T14:09:05;21.10;99.90
35531;DHT22;21637;53.352;-6.356;2022-08-01T14:11:30;21.10;99.90
35531;DHT22;21637;53.352;-6.356;2022-08-01T14:13:56;21.00;99.90
35531;DHT22;21637;53.352;-6.356;2022-08-01T14:16:22;20.80;99.90
35531;DHT22;21637;53.352;-6.356;2022-08-01T14:18:47;20.70;99.90
35531;DHT22;21637;53.352;-6.356;2022-08-01T14:21:13;20.70;99.90
35531;DHT22;21637;53.352;-6.356;2022-08-01T14:23:40;20.70;99.90
35531;DHT22;21637;53.352;-6.356;2022-08-01T14:26:08;20.70;99.90
35531;DHT22;21637;53.352;-6.356;2022-08-01T14:28:33;20.60;99.90
35531;DHT22;21637;53.352;-6.356;2022-08-01T14:30:59;20.60;99.90
35531;DHT22;21637;53.352;-6.356;2022-08-01T14:33:25;20.60;99.90
35531;DHT22;21637;53.352;-6.356;2022-08-01T14:35:51;20.50;99.90
35531;DHT22;21637;53.352;-6.356;2022-08-01T14:38:17;20.50;99.90
35531;DHT22;21637;53.352;-6.356;2022-08-01T14:40:43;20.50;99.90
35531;DHT22;21637;53.352;-6.356;2022-08-01T14:43:12;20.50;99.90
35531;DHT22;21637;53.352;-6.356;2022-08-01T14:45:38;20.50;99.90
35531;DHT22;21637;53.352;-6.356;2022-08-01T14:48:03;20.50;99.90
35531;DHT22;21637;53.352;-6.356;2022-08-01T14:50:29;20.50;99.90
35531;DHT22;21637;53.352;-6.356;2022-08-01T14:52:56;20.50;99.90
35531;DHT22;21637;53.352;-6.356;2022-08-01T14:55:21;20.50;99.90
35531;DHT22;21637;53.352;-6.356;2022-08-01T14:57:50;20.40;99.90
35531;DHT22;21637;53.352;-6.356;2022-08-01T15:00:16;20.50;99.90
35531;DHT22;21637;53.352;-6.356;2022-08-01T15:02:42;20.40;99.90
35531;DHT22;21637;53.352;-6.356;2022-08-01T15:05:07;20.40;99.90
35531;DHT22;21637;53.352;-6.356;2022-08-01T15:07:34;20.40;99.90
35531;DHT22;21637;53.352;-6.356;2022-08-01T15:10:00;20.50;99.90
35531;DHT22;21637;53.352;-6.356;2022-08-01T15:12:25;20.40;99.90
35531;DHT22;21637;53.352;-6.356;2022-08-01T15:14:51;20.40;99.90
35531;DHT22;21637;53.352;-6.356;2022-08-01T15:17:18;20.40;99.90
35531;DHT22;21637;53.352;-6.356;2022-08-01T15:19:44;20.50;99.90
35531;DHT22;21637;53.352;-6.356;2022-08-01T15:22:10;20.40;99.90
35531;DHT22;21637;53.352;-6.356;2022-08-01T15:24:36;20.50;99.90
35531;DHT22;21637;53.352;-6.356;2022-08-01T15:27:02;20.50;99.90
35531;DHT22;21637;53.352;-6.356;2022-08-01T15:29:27;20.50;99.90
35531;DHT22;21637;53.352;-6.356;2022-08-01T15:31:53;20.50;99.90
35531;DHT22;21637;53.352;-6.356;2022-08-01T15:34:18;20.60;99.90
35531;DHT22;21637;53.352;-6.356;2022-08-01T15:36:44;20.50;99.90
35531;DHT22;21637;53.352;-6.356;2022-08-01T15:39:10;20.40;99.90
35531;DHT22;21637;53.352;-6.356;2022-08-01T15:41:36;20.40;99.90
35531;DHT22;21637;53.352;-6.356;2022-08-01T15:44:01;20.40;99.90
35531;DHT22;21637;53.352;-6.356;2022-08-01T15:46:28;20.40;99.90
35531;DHT22;21637;53.352;-6.356;2022-08-01T15:48:53;20.40;99.90